Time;durP1;ratioP1;P1;durP2;ratioP2;P2;SDS_P1;SDS_P2;PMS_P1;PMS_P2;Temp;Humidity;BMP_temperature;BMP_pressure;BME280_temperature;BME280_humidity;BME280_pressure;Samples;Min_cycle;Max_cycle;Signal;HPM_P1;HPM_P2
2022/12/23 00:00:44;;;;;;;13.95;5.72;;;;;;;9.96;100.00;100176.84;5093862;28;20040;-58
2022/12/23 00:03:12;;;;;;;17.13;6.30;;;;;;;9.98;100.00;100175.47;5092484;28;20053;-59
2022/12/23 00:05:40;;;;;;;17.33;5.90;;;;;;;9.98;100.00;100188.25;5093355;28;20043;-57
2022/12/23 00:08:08;;;;;;;15.98;5.97;;;;;;;9.97;100.00;100187.44;5094667;28;20044;-54
2022/12/23 00:10:39;;;;;;;14.90;6.05;;;;;;;9.97;100.00;100176.56;5092972;28;20040;-57
2022/12/23 00:16:08;;;;;;;15.68;5.82;;;;;;;9.98;100.00;100188.25;5093228;28;20089;-56
2022/12/23 00:18:36;;;;;;;14.60;6.18;;;;;;;9.98;100.00;100193.69;5093546;28;20159;-57
2022/12/23 00:21:12;;;;;;;16.05;5.85;;;;;;;9.99;100.00;100198.06;5079423;28;20043;-58
2022/12/23 00:23:41;;;;;;;;;;;;;;;9.99;100.00;100203.50;5092566;28;20555;-57
2022/12/23 00:26:15;;;;;;;15.43;5.93;;;;;;;9.98;100.00;100196.41;5093291;28;19930;-57
2022/12/23 00:28:42;;;;;;;15.82;5.50;;;;;;;9.98;100.00;100199.13;5092115;28;20056;-59
2022/12/23 00:31:11;;;;;;;15.80;6.20;;;;;;;9.98;100.00;100201.84;5091823;28;20059;-56
2022/12/23 00:33:41;;;;;;;13.65;6.22;;;;;;;9.99;100.00;100201.59;5090822;28;20505;-60
2022/12/23 00:36:18;;;;;;;14.75;6.20;;;;;;;9.98;100.00;100210.00;5092856;28;20055;-59
2022/12/23 00:44:20;;;;;;;13.05;6.47;;;;;;;10.02;100.00;100211.09;5091830;28;20048;-59
2022/12/23 00:46:48;;;;;;;12.55;5.85;;;;;;;10.02;100.00;100216.53;5091208;28;20044;-59
2022/12/23 00:52:05;;;;;;;12.30;6.18;;;;;;;10.01;100.00;100223.09;5091915;28;20032;-60
2022/12/23 00:54:32;;;;;;;11.98;6.10;;;;;;;9.99;100.00;100220.63;5091449;28;20494;-60
2022/12/23 00:57:01;;;;;;;12.45;6.38;;;;;;;9.99;100.00;100231.53;5092825;28;20047;-60
2022/12/23 00:59:28;;;;;;;12.07;6.22;;;;;;;9.99;100.00;100236.16;5091479;28;20043;-60
2022/12/23 01:07:29;;;;;;;10.57;6.10;;;;;;;9.99;100.00;100252.47;5088162;28;20098;-57
2022/12/23 01:09:56;;;;;;;10.85;5.97;;;;;;;9.98;100.00;100237.22;5092675;28;20040;-59
2022/12/23 01:12:24;;;;;;;12.55;5.82;;;;;;;9.98;100.00;100248.13;5092667;28;20039;-59
2022/12/23 01:14:52;;;;;;;10.48;6.03;;;;;;;9.98;100.00;100246.22;5091000;28;20521;-58
2022/12/23 01:17:19;;;;;;;11.50;6.00;;;;;;;9.96;100.00;100242.16;5074525;28;20040;-55
2022/12/23 01:19:47;;;;;;;11.10;5.40;;;;;;;9.98;100.00;100250.84;5091539;28;20064;-53
2022/12/23 01:22:15;;;;;;;11.32;5.90;;;;;;;9.98;100.00;100248.13;5093276;28;20075;-57
2022/12/23 01:24:43;;;;;;;10.15;5.40;;;;;;;10.00;100.00;100251.38;5092601;28;20040;-59
2022/12/23 01:27:10;;;;;;;11.80;5.55;;;;;;;10.00;100.00;100248.66;5089957;28;20055;-59
2022/12/23 01:29:38;;;;;;;11.15;5.78;;;;;;;10.00;100.00;100251.38;5091636;28;20082;-59
2022/12/23 01:32:06;;;;;;;10.50;5.20;;;;;;;9.99;100.00;100247.84;5093584;28;20044;-59
2022/12/23 01:34:33;;;;;;;10.38;5.63;;;;;;;10.01;100.00;100261.19;5094121;28;20047;-57
2022/12/23 01:37:04;;;;;;;12.63;5.75;;;;;;;9.99;100.00;100253.28;5100089;28;20051;-56
2022/12/23 01:39:32;;;;;;;9.35;5.45;;;;;;;9.99;100.00;100263.38;5100906;28;20036;-57
2022/12/23 01:44:46;;;;;;;12.18;5.68;;;;;;;9.99;100.00;100261.47;5095894;28;20482;-59
2022/12/23 01:47:28;;;;;;;10.57;5.55;;;;;;;9.98;100.00;100262.56;5094986;28;20051;-58
2022/12/23 01:50:32;;;;;;;10.15;5.30;;;;;;;9.98;100.00;100256.28;5095823;28;20040;-58
2022/12/23 01:53:24;;;;;;;10.57;5.90;;;;;;;9.99;100.00;100266.09;5095001;28;20036;-58
2022/12/23 01:56:00;;;;;;;9.18;5.53;;;;;;;9.99;100.00;100274.25;5094126;28;20059;-59
2022/12/23 01:58:35;;;;;;;11.27;5.78;;;;;;;10.00;100.00;100281.31;5095046;28;20040;-57
2022/12/23 02:03:54;;;;;;;11.88;5.97;;;;;;;10.00;100.00;100292.19;5094377;28;20044;-57
2022/12/23 02:09:16;;;;;;;12.32;6.03;;;;;;;9.99;100.00;100296.03;5090578;28;20040;-58
2022/12/23 02:12:23;;;;;;;12.73;5.82;;;;;;;9.99;100.00;100296.84;5095479;28;20044;-61
2022/12/23 02:18:04;;;;;;;11.52;5.88;;;;;;;9.99;100.00;100302.28;5095186;28;20421;-55
2022/12/23 02:20:47;;;;;;;11.80;5.25;;;;;;;9.99;100.00;100305.00;5090027;28;20064;-59
2022/12/23 02:23:48;;;;;;;10.85;5.53;;;;;;;9.99;100.00;100306.91;5095367;28;20048;-59
2022/12/23 02:26:37;;;;;;;10.38;5.78;;;;;;;10.00;100.00;100309.34;5081937;28;20048;-56
2022/12/23 02:29:42;;;;;;;9.05;5.00;;;;;;;10.01;100.00;100310.19;5074950;28;20044;-59
2022/12/23 02:32:10;;;;;;;8.98;5.70;;;;;;;10.00;100.00;100308.53;5093070;28;20412;-52
2022/12/23 02:34:57;;;;;;;10.45;6.18;;;;;;;9.97;100.00;100309.91;5093265;28;20032;-59
2022/12/23 02:37:48;;;;;;;9.60;5.50;;;;;;;9.99;100.00;100317.81;5109205;28;20372;-60
2022/12/23 02:40:31;;;;;;;11.85;6.20;;;;;;;9.98;100.00;100327.03;5093539;28;20040;-59
2022/12/23 02:43:19;;;;;;;9.43;5.90;;;;;;;9.98;100.00;100324.31;5095007;28;20051;-57
2022/12/23 02:46:13;;;;;;;10.23;6.43;;;;;;;9.97;100.00;100326.22;5093050;28;20529;-59
2022/12/23 02:49:12;;;;;;;12.23;6.53;;;;;;;9.98;100.00;100346.09;5085658;28;20513;-59
2022/12/23 02:51:46;;;;;;;10.00;6.25;;;;;;;9.98;100.00;100356.97;5110556;28;20042;-59
2022/12/23 02:54:29;;;;;;;9.40;6.25;;;;;;;9.98;100.00;100359.69;5094062;28;20048;-58
2022/12/23 02:56:58;;;;;;;10.68;6.60;;;;;;;9.95;100.00;100363.78;5092786;28;20040;-59
2022/12/23 02:59:28;;;;;;;11.70;7.00;;;;;;;9.94;100.00;100364.88;5093397;28;20048;-59
2022/12/23 03:01:56;;;;;;;10.23;6.28;;;;;;;9.94;100.00;100372.25;5094471;28;20401;-60
2022/12/23 03:04:24;;;;;;;11.18;7.40;;;;;;;9.95;100.00;100368.41;5092828;28;20036;-59
2022/12/23 03:06:53;;;;;;;10.35;6.75;;;;;;;9.95;100.00;100371.16;5093602;28;20044;-59
2022/12/23 03:09:28;;;;;;;10.45;6.80;;;;;;;9.94;100.00;100372.25;5096362;28;20055;-59
2022/12/23 03:12:21;;;;;;;12.30;7.15;;;;;;;9.95;100.00;100369.22;5081354;28;20070;-59
2022/12/23 03:15:09;;;;;;;11.18;7.10;;;;;;;9.96;100.00;100367.34;5075655;28;20379;-59
2022/12/23 03:18:09;;;;;;;10.88;6.55;;;;;;;9.98;100.00;100365.13;5078454;28;20067;-59
2022/12/23 03:21:00;;;;;;;13.07;7.60;;;;;;;9.97;100.00;100358.88;5094090;28;20406;-58
2022/12/23 03:23:29;;;;;;;9.75;6.68;;;;;;;9.97;100.00;100358.09;5092526;28;20032;-58
2022/12/23 03:26:09;;;;;;;10.32;6.60;;;;;;;9.98;100.00;100352.38;5091806;28;20119;-59
2022/12/23 03:28:45;;;;;;;8.63;5.80;;;;;;;9.98;100.00;100359.69;5094116;28;20036;-58
2022/12/23 03:31:16;;;;;;;9.25;5.32;;;;;;;9.99;100.00;100355.91;5094197;28;20052;-54
2022/12/23 03:33:47;;;;;;;7.25;5.75;;;;;;;9.98;100.00;100354.25;5092610;28;20127;-59
2022/12/23 03:36:23;;;;;;;8.27;5.35;;;;;;;9.96;100.00;100357.28;5091585;28;20036;-59
2022/12/23 03:38:52;;;;;;;8.07;5.20;;;;;;;9.96;100.00;100361.91;5092558;28;20044;-56
2022/12/23 03:41:25;;;;;;;6.15;4.50;;;;;;;9.96;100.00;100362.72;5092316;28;20097;-59
2022/12/23 03:43:57;;;;;;;8.30;4.80;;;;;;;9.95;100.00;100361.06;5092024;28;20040;-53
2022/12/23 03:46:38;;;;;;;6.63;4.82;;;;;;;9.95;100.00;100360.25;5092916;28;20534;-58
2022/12/23 03:49:10;;;;;;;7.55;4.90;;;;;;;9.94;100.00;100364.88;5090754;28;20036;-58
2022/12/23 03:52:08;;;;;;;8.98;5.00;;;;;;;9.93;100.00;100363.28;5075593;28;20051;-59
2022/12/23 03:54:53;;;;;;;7.10;4.97;;;;;;;9.95;100.00;100368.41;5068248;28;20041;-57
2022/12/23 03:57:51;;;;;;;8.07;5.55;;;;;;;9.93;100.00;100365.16;5086567;28;20043;-57
2022/12/23 04:00:18;;;;;;;9.70;5.78;;;;;;;9.93;100.00;100362.44;5092538;28;20517;-59
2022/12/23 04:02:57;;;;;;;11.15;5.60;;;;;;;9.94;100.00;100373.06;5092831;28;20418;-54
2022/12/23 04:05:34;;;;;;;11.35;6.68;;;;;;;9.94;100.00;100369.53;5093838;28;20250;-60
2022/12/23 04:08:22;;;;;;;;;;;;;;;9.94;100.00;100370.34;5090862;28;20051;-58
2022/12/23 04:10:50;;;;;;;12.57;6.72;;;;;;;9.95;100.00;100382.03;5091477;28;19927;-59
2022/12/23 04:13:17;;;;;;;9.82;6.38;;;;;;;9.95;100.00;100387.47;5078794;28;20448;-59
2022/12/23 04:15:45;;;;;;;12.93;6.88;;;;;;;9.94;100.00;100392.09;5094615;28;20561;-59
2022/12/23 04:18:15;;;;;;;10.90;7.13;;;;;;;9.94;100.00;100392.09;5092591;28;20093;-59
2022/12/23 04:20:42;;;;;;;9.23;6.63;;;;;;;9.94;100.00;100394.03;5092707;28;20036;-59
2022/12/23 04:23:10;;;;;;;11.93;7.63;;;;;;;9.92;100.00;100391.56;5093054;28;20036;-56
2022/12/23 04:25:37;;;;;;;12.25;6.82;;;;;;;9.92;100.00;100393.47;5093261;28;20024;-56
2022/12/23 04:28:05;;;;;;;11.27;7.07;;;;;;;9.92;100.00;100394.28;5093033;28;20119;-54
2022/12/23 04:30:33;;;;;;;10.43;6.80;;;;;;;9.93;100.00;100403.25;5090572;28;20552;-56
2022/12/23 04:33:02;;;;;;;11.93;7.05;;;;;;;9.92;100.00;100397.00;5092554;28;20558;-57
2022/12/23 04:35:30;;;;;;;10.25;6.53;;;;;;;9.92;100.00;100398.91;5093134;28;20043;-56
2022/12/23 04:37:57;;;;;;;10.15;6.47;;;;;;;9.93;100.00;100405.97;5093387;28;20136;-58
2022/12/23 04:40:25;;;;;;;11.45;6.95;;;;;;;9.92;100.00;100405.16;5093768;28;20082;-58
2022/12/23 04:42:52;;;;;;;9.57;6.32;;;;;;;9.91;100.00;100414.44;5094263;28;20402;-53
2022/12/23 04:45:20;;;;;;;8.88;6.00;;;;;;;9.92;100.00;100410.59;5092485;28;20128;-56
2022/12/23 04:47:48;;;;;;;8.93;5.85;;;;;;;9.92;100.00;100416.06;5093236;28;20067;-52
2022/12/23 04:50:16;;;;;;;9.23;6.10;;;;;;;9.92;100.00;100409.78;5091660;28;20032;-59
2022/12/23 04:52:44;;;;;;;10.82;6.85;;;;;;;9.87;100.00;100418.78;5092376;28;20051;-53
2022/12/23 04:55:11;;;;;;;12.18;6.97;;;;;;;9.85;100.00;100411.97;5091454;28;20040;-55
2022/12/23 04:57:39;;;;;;;10.85;7.07;;;;;;;9.82;100.00;100397.03;5092729;28;20044;-52
2022/12/23 05:00:07;;;;;;;9.30;6.78;;;;;;;9.82;100.00;100394.31;5092364;28;20107;-54
2022/12/23 05:02:35;;;;;;;10.68;7.25;;;;;;;9.80;100.00;100391.84;5091791;28;20051;-55
2022/12/23 05:05:03;;;;;;;11.55;6.60;;;;;;;9.83;100.00;100390.47;5090611;28;20045;-52
2022/12/23 05:07:30;;;;;;;9.82;6.68;;;;;;;9.82;100.00;100392.38;5091526;28;20063;-55
2022/12/23 05:10:00;;;;;;;11.45;6.50;;;;;;;9.86;100.00;100389.13;5093343;28;20040;-58
2022/12/23 05:12:29;;;;;;;10.93;6.40;;;;;;;9.87;100.00;100393.47;5095702;28;20054;-55
2022/12/23 05:14:56;;;;;;;10.55;6.68;;;;;;;9.88;100.00;100387.75;5096452;28;20048;-54
2022/12/23 05:17:24;;;;;;;10.13;6.68;;;;;;;9.90;100.00;100387.47;5094978;28;20040;-53
2022/12/23 05:19:52;;;;;;;9.38;6.43;;;;;;;9.91;100.00;100386.38;5096169;28;20064;-53
2022/12/23 05:22:19;;;;;;;9.23;6.15;;;;;;;9.90;100.00;100392.94;5089961;28;20047;-55
2022/12/23 05:24:47;;;;;;;10.98;6.57;;;;;;;9.90;100.00;100401.91;5091483;28;20055;-52
2022/12/23 05:27:15;;;;;;;10.27;6.55;;;;;;;9.90;100.00;100412.78;5096670;28;20394;-53
2022/12/23 05:29:42;;;;;;;9.98;6.50;;;;;;;9.91;100.00;100419.03;5096013;28;20036;-55
2022/12/23 05:32:10;;;;;;;8.70;6.10;;;;;;;9.92;100.00;100421.50;5093742;28;20059;-55
2022/12/23 05:34:37;;;;;;;9.82;5.95;;;;;;;9.92;100.00;100426.94;5096056;28;20040;-55
2022/12/23 05:37:05;;;;;;;11.00;6.13;;;;;;;9.93;100.00;100430.47;5096273;28;20047;-56
2022/12/23 05:39:33;;;;;;;11.40;6.10;;;;;;;9.95;100.00;100433.75;5111134;28;20051;-58
2022/12/23 05:42:00;;;;;;;9.63;6.57;;;;;;;9.95;100.00;100433.75;5094282;28;20047;-57
2022/12/23 05:44:28;;;;;;;8.48;5.82;;;;;;;9.94;100.00;100434.84;5093946;28;20443;-58
2022/12/23 05:46:55;;;;;;;8.93;6.00;;;;;;;9.94;100.00;100445.72;5095449;28;20044;-59
2022/12/23 05:49:24;;;;;;;7.22;5.30;;;;;;;9.94;100.00;100443.81;5094313;28;20029;-58
2022/12/23 05:51:52;;;;;;;7.78;5.70;;;;;;;9.93;100.00;100438.63;5095631;28;20063;-58
2022/12/23 05:54:20;;;;;;;8.48;6.30;;;;;;;9.93;100.00;100444.06;5094363;28;20040;-59
2022/12/23 05:56:47;;;;;;;9.00;5.95;;;;;;;9.92;100.00;100437.81;5095966;28;20044;-58
2022/12/23 05:59:15;;;;;;;8.77;5.82;;;;;;;9.94;100.00;100434.84;5110302;28;20060;-58
2022/12/23 06:01:43;;;;;;;10.00;6.85;;;;;;;9.92;100.00;100424.22;5095738;28;20139;-58
2022/12/23 06:04:10;;;;;;;10.70;6.80;;;;;;;9.93;100.00;100425.88;5093035;28;20111;-58
2022/12/23 06:06:38;;;;;;;13.35;8.00;;;;;;;9.92;100.00;100420.69;5095923;28;20048;-54
2022/12/23 06:09:07;;;;;;;14.50;8.88;;;;;;;9.93;100.00;100423.16;5097425;28;20055;-57
2022/12/23 06:11:35;;;;;;;15.35;8.57;;;;;;;9.91;100.00;100414.44;5089687;28;20448;-57
2022/12/23 06:14:03;;;;;;;15.35;8.73;;;;;;;9.91;100.00;100410.88;5099029;28;20047;-58
2022/12/23 06:16:30;;;;;;;15.75;9.30;;;;;;;9.90;100.00;100403.81;5095656;28;20038;-59
2022/12/23 06:18:58;;;;;;;20.35;9.27;;;;;;;9.90;100.00;100401.91;5095079;28;20029;-59
2022/12/23 06:21:26;;;;;;;17.95;9.38;;;;;;;9.90;100.00;100406.53;5094368;28;20490;-59
2022/12/23 06:23:53;;;;;;;15.00;9.35;;;;;;;9.92;100.00;100404.34;5093780;28;20062;-58
2022/12/23 06:26:21;;;;;;;16.63;8.90;;;;;;;9.91;100.00;100394.53;5092775;28;20043;-59
2022/12/23 06:28:48;;;;;;;13.88;8.02;;;;;;;9.91;100.00;100397.25;5094352;28;20372;-57
2022/12/23 06:31:16;;;;;;;17.25;9.35;;;;;;;9.91;100.00;100397.25;5092854;28;20056;-58
2022/12/23 06:33:44;;;;;;;15.57;9.60;;;;;;;9.89;100.00;100394.84;5094381;28;20043;-56
2022/12/23 06:36:11;;;;;;;16.45;9.70;;;;;;;9.91;100.00;100402.72;5093512;28;20384;-59
2022/12/23 06:38:39;;;;;;;15.85;9.52;;;;;;;9.88;100.00;100408.72;5091799;28;20043;-55
2022/12/23 06:41:07;;;;;;;19.02;10.18;;;;;;;9.88;100.00;100409.50;5085412;28;20043;-59
2022/12/23 06:43:34;;;;;;;17.90;10.30;;;;;;;9.89;100.00;100421.25;5094542;28;20048;-58
2022/12/23 06:46:02;;;;;;;16.80;9.57;;;;;;;9.90;100.00;100414.69;5093263;28;20036;-59
2022/12/23 06:48:30;;;;;;;20.13;10.77;;;;;;;9.91;100.00;100419.03;5093911;28;20066;-57
2022/12/23 06:50:57;;;;;;;17.50;10.30;;;;;;;9.91;100.00;100419.03;5094058;28;20028;-58
2022/12/23 06:53:25;;;;;;;18.10;9.75;;;;;;;9.91;100.00;100429.91;5093854;28;20039;-58
2022/12/23 06:55:59;;;;;;;16.13;9.57;;;;;;;9.91;100.00;100435.38;4387238;28;10000691;-61
2022/12/23 06:58:27;;;;;;;16.45;10.13;;;;;;;9.93;100.00;100438.63;5089172;28;20044;-59
2022/12/23 07:00:55;;;;;;;19.45;9.95;;;;;;;9.90;100.00;100445.44;5089557;28;20066;-59
2022/12/23 07:03:23;;;;;;;15.48;9.45;;;;;;;9.88;100.00;100449.53;5090616;28;20105;-58
2022/12/23 07:05:51;;;;;;;17.55;9.50;;;;;;;9.85;100.00;100459.06;5090768;28;20039;-57
2022/12/23 07:08:18;;;;;;;16.17;8.82;;;;;;;9.85;100.00;100466.41;5089551;28;20048;-59
2022/12/23 07:10:46;;;;;;;13.70;8.50;;;;;;;9.83;100.00;100483.00;5090469;28;20062;-58
2022/12/23 07:13:14;;;;;;;16.17;9.55;;;;;;;9.85;100.00;100493.63;5087641;28;20047;-60
2022/12/23 07:15:41;;;;;;;15.00;8.73;;;;;;;9.85;100.00;100486.25;5089676;28;20048;-59
2022/12/23 07:18:09;;;;;;;13.88;9.18;;;;;;;9.86;100.00;100487.06;5086069;28;20040;-58
2022/12/23 07:20:36;;;;;;;15.93;8.80;;;;;;;9.87;100.00;100484.09;5089123;28;20047;-56
2022/12/23 07:23:04;;;;;;;15.15;9.13;;;;;;;9.89;100.00;100492.81;5086059;28;20145;-58
2022/12/23 07:25:32;;;;;;;14.85;8.65;;;;;;;9.92;100.00;100480.56;5088149;28;20044;-60
2022/12/23 07:27:59;;;;;;;16.38;9.30;;;;;;;9.92;100.00;100470.47;5090092;28;20044;-59
2022/12/23 07:30:28;;;;;;;15.60;9.35;;;;;;;9.92;100.00;100469.66;5090035;28;20047;-60
2022/12/23 07:32:56;;;;;;;16.42;8.85;;;;;;;9.90;100.00;100472.66;5089439;28;20079;-60
2022/12/23 07:35:24;;;;;;;14.98;8.93;;;;;;;9.90;100.00;100466.41;5077619;28;20032;-58
2022/12/23 07:37:55;;;;;;;13.63;8.48;;;;;;;9.91;100.00;100468.03;5092488;28;20052;-56
2022/12/23 07:40:23;;;;;;;15.05;9.82;;;;;;;9.92;100.00;100465.03;5094426;28;20490;-60
2022/12/23 07:42:55;;;;;;;15.32;9.70;;;;;;;9.92;100.00;100464.22;5094499;28;20036;-59
2022/12/23 07:45:23;;;;;;;14.82;9.40;;;;;;;9.92;100.00;100458.78;5092862;28;20051;-52
2022/12/23 07:47:55;;;;;;;15.10;9.55;;;;;;;9.92;100.00;100465.03;5093564;28;20438;-59
2022/12/23 07:50:23;;;;;;;15.60;9.57;;;;;;;9.93;100.00;100458.53;5093345;28;20059;-58
2022/12/23 07:52:51;;;;;;;15.98;10.00;;;;;;;9.94;100.00;100456.63;5091849;28;20044;-58
2022/12/23 07:55:19;;;;;;;14.40;10.48;;;;;;;9.94;100.00;100448.44;5093251;28;20050;-58
2022/12/23 07:57:48;;;;;;;17.77;10.20;;;;;;;9.94;100.00;100449.25;5093124;28;20058;-59
2022/12/23 08:00:16;;;;;;;15.52;10.25;;;;;;;9.96;100.00;100455.25;5092145;28;20036;-53
2022/12/23 08:02:44;;;;;;;15.45;10.05;;;;;;;9.97;100.00;100456.06;5091655;28;20517;-53
2022/12/23 08:05:13;;;;;;;15.88;10.05;;;;;;;9.96;100.00;100454.44;5075541;28;20063;-55
2022/12/23 08:07:41;;;;;;;16.50;9.73;;;;;;;9.98;100.00;100463.13;5093161;28;20063;-57
2022/12/23 08:10:09;;;;;;;18.70;11.02;;;;;;;9.99;100.00;100456.59;5090977;28;20516;-56
2022/12/23 08:12:37;;;;;;;20.35;11.27;;;;;;;9.97;100.00;100456.88;5091193;28;20044;-60
2022/12/23 08:15:05;;;;;;;17.15;10.95;;;;;;;9.99;100.00;100460.13;5092836;28;20036;-59
2022/12/23 08:17:33;;;;;;;15.85;10.77;;;;;;;10.01;100.00;100462.59;5092866;28;20028;-56
2022/12/23 08:20:01;;;;;;;15.65;9.88;;;;;;;10.01;100.00;100465.31;5091268;28;20044;-56
2022/12/23 08:22:30;;;;;;;18.02;11.80;;;;;;;10.04;100.00;100456.59;5092736;28;20072;-56
2022/12/23 08:24:58;;;;;;;17.92;12.25;;;;;;;10.03;100.00;100446.81;5092739;28;20043;-60
2022/12/23 08:27:26;;;;;;;20.52;13.10;;;;;;;10.02;100.00;100445.97;5091128;28;20158;-59
2022/12/23 08:29:53;;;;;;;22.85;13.27;;;;;;;10.02;100.00;100437.00;5092458;28;20066;-59
2022/12/23 08:32:21;;;;;;;17.27;11.10;;;;;;;10.02;100.00;100429.63;5091976;28;20054;-57
2022/12/23 08:34:49;;;;;;;17.65;12.10;;;;;;;10.02;100.00;100426.91;5092718;28;20119;-57
2022/12/23 08:37:16;;;;;;;21.00;13.73;;;;;;;10.01;100.00;100417.13;5092508;28;20473;-57
2022/12/23 08:39:44;;;;;;;19.52;14.95;;;;;;;10.01;100.00;100419.03;5092376;28;20036;-58
2022/12/23 08:42:12;;;;;;;23.92;16.30;;;;;;;10.00;100.00;100431.81;5092336;28;20063;-58
2022/12/23 08:44:39;;;;;;;18.85;12.35;;;;;;;10.02;100.00;100429.63;5094435;28;20093;-57
2022/12/23 08:47:07;;;;;;;26.52;19.15;;;;;;;10.05;100.00;100439.16;5092431;28;20188;-52
2022/12/23 08:49:35;;;;;;;28.17;21.15;;;;;;;9.97;100.00;100434.28;5096604;28;20133;-58
2022/12/23 08:52:03;;;;;;;29.00;22.13;;;;;;;9.93;100.00;100441.34;5094432;28;20043;-55
2022/12/23 08:54:30;;;;;;;31.30;24.35;;;;;;;9.92;100.00;100437.00;5091212;28;20040;-52
2022/12/23 08:56:58;;;;;;;36.22;25.23;;;;;;;9.91;100.00;100425.31;5096153;28;20514;-57
2022/12/23 08:59:26;;;;;;;34.15;25.30;;;;;;;9.91;100.00;100419.03;5095551;28;20036;-58
2022/12/23 09:01:53;;;;;;;35.38;25.85;;;;;;;9.91;100.00;100413.59;5111355;28;20132;-57
2022/12/23 09:04:21;;;;;;;27.17;20.35;;;;;;;9.93;100.00;100408.69;5096148;28;20040;-57
2022/12/23 09:06:50;;;;;;;28.67;21.15;;;;;;;9.96;100.00;100406.25;5096265;28;20065;-55
2022/12/23 09:09:18;;;;;;;30.58;22.67;;;;;;;9.99;100.00;100404.88;5096013;28;20036;-57
2022/12/23 09:11:45;;;;;;;31.30;19.42;;;;;;;9.99;100.00;100405.69;5078389;28;20040;-56
2022/12/23 09:14:13;;;;;;;24.70;16.17;;;;;;;10.02;100.00;100402.44;5098629;28;20036;-53
2022/12/23 09:16:40;;;;;;;28.35;17.02;;;;;;;10.07;100.00;100398.88;5095816;28;20028;-55
2022/12/23 09:19:08;;;;;;;28.45;16.05;;;;;;;10.09;100.00;100404.88;5094790;28;20131;-51
2022/12/23 09:21:36;;;;;;;30.58;15.32;;;;;;;10.11;100.00;100402.69;5095879;28;20110;-52
2022/12/23 09:24:04;;;;;;;28.52;17.30;;;;;;;10.11;100.00;100396.44;5090673;28;20033;-55
2022/12/23 09:26:32;;;;;;;41.72;17.85;;;;;;;10.15;100.00;100387.44;5092111;28;20101;-51
2022/12/23 09:28:59;;;;;;;32.00;16.58;;;;;;;10.22;100.00;100390.69;5090445;28;20050;-53
2022/12/23 09:31:27;;;;;;;28.17;16.40;;;;;;;10.25;100.00;100386.59;5093529;28;20062;-54
2022/12/23 09:34:03;;;;;;;26.13;16.60;;;;;;;10.22;100.00;100378.97;5085784;28;20491;-52
2022/12/23 09:36:31;;;;;;;25.15;18.98;;;;;;;10.17;100.00;100368.09;5094599;28;20402;-52
2022/12/23 09:38:59;;;;;;;26.20;16.15;;;;;;;10.15;100.00;100368.38;5092704;28;20111;-53
2022/12/23 09:42:00;;;;;;;24.65;16.75;;;;;;;10.14;100.00;100364.03;5095722;28;20036;-54
2022/12/23 09:45:03;;;;;;;24.35;16.17;;;;;;;10.14;100.00;100358.56;5095110;28;20032;-56
2022/12/23 09:47:32;;;;;;;22.58;14.00;;;;;;;10.14;100.00;100357.75;5046907;28;20041;-56
2022/12/23 09:50:05;;;;;;;24.83;13.63;;;;;;;10.16;100.00;100355.59;5076330;28;20052;-57
2022/12/23 09:52:41;;;;;;;23.95;15.07;;;;;;;10.15;100.00;100354.78;5093548;28;20047;-53
2022/12/23 09:55:10;;;;;;;28.15;17.45;;;;;;;10.11;100.00;100342.00;5094213;28;20058;-51
2022/12/23 09:58:00;;;;;;;23.55;16.50;;;;;;;10.08;100.00;100337.91;5095524;28;20048;-53
2022/12/23 10:00:38;;;;;;;25.42;17.98;;;;;;;10.05;100.00;100327.56;5093836;28;20120;-51
2022/12/23 10:03:27;;;;;;;24.85;16.33;;;;;;;10.06;100.00;100322.97;5093815;28;20051;-53
2022/12/23 10:06:10;;;;;;;22.35;14.85;;;;;;;10.05;100.00;100324.03;5089929;28;20143;-51
2022/12/23 10:08:46;;;;;;;24.83;12.80;;;;;;;10.05;100.00;100335.72;5095227;28;20040;-53
2022/12/23 10:11:19;;;;;;;19.52;12.57;;;;;;;10.08;100.00;100337.09;5107138;28;20514;-50
2022/12/23 10:13:59;;;;;;;23.52;14.38;;;;;;;10.06;100.00;100340.09;5093443;28;20050;-51
2022/12/23 10:16:41;;;;;;;21.48;10.75;;;;;;;10.09;100.00;100339.53;5094425;28;20036;-51
2022/12/23 10:19:14;;;;;;;21.77;11.23;;;;;;;10.15;100.00;100337.59;5092970;28;20106;-52
2022/12/23 10:21:49;;;;;;;20.98;13.30;;;;;;;10.11;100.00;100329.19;5108993;28;20047;-56
2022/12/23 10:24:27;;;;;;;20.33;12.27;;;;;;;10.10;100.00;100313.97;5093936;28;20048;-51
2022/12/23 10:26:56;;;;;;;19.88;11.95;;;;;;;10.10;100.00;100315.84;5093467;28;20082;-54
2022/12/23 10:29:26;;;;;;;22.88;10.25;;;;;;;10.11;100.00;100309.34;5095193;28;20043;-52
2022/12/23 10:31:57;;;;;;;21.50;11.55;;;;;;;10.12;100.00;100300.06;5095126;28;20059;-52
2022/12/23 10:35:00;;;;;;;18.63;10.77;;;;;;;10.07;100.00;100295.44;5094814;28;20032;-53
2022/12/23 10:37:54;;;;;;;22.30;10.13;;;;;;;10.06;100.00;100290.31;5086567;28;20044;-50
2022/12/23 10:40:26;;;;;;;18.17;8.90;;;;;;;10.05;100.00;100284.00;5077110;28;20052;-52
2022/12/23 10:43:12;;;;;;;16.67;8.50;;;;;;;10.06;100.00;100284.84;5093529;28;20032;-52
2022/12/23 10:45:52;;;;;;;16.08;7.80;;;;;;;10.08;100.00;100296.25;5093512;28;20036;-53
2022/12/23 10:48:26;;;;;;;18.90;7.20;;;;;;;10.15;100.00;100288.59;5095917;28;20097;-55
2022/12/23 10:50:59;;;;;;;15.57;7.72;;;;;;;10.11;100.00;100288.38;5094509;28;20044;-54
2022/12/23 10:54:00;;;;;;;18.67;8.63;;;;;;;10.14;100.00;100263.28;5074471;28;20047;-57
2022/12/23 10:56:29;;;;;;;12.95;6.70;;;;;;;10.17;100.00;100260.03;5093150;28;20042;-57
2022/12/23 10:58:58;;;;;;;14.90;7.10;;;;;;;10.17;100.00;100260.03;5076196;28;20039;-53
2022/12/23 11:01:29;;;;;;;17.15;8.00;;;;;;;10.15;100.00;100250.50;5090428;28;20127;-58
2022/12/23 11:04:12;;;;;;;13.10;7.63;;;;;;;10.10;100.00;100254.06;5094086;28;20052;-56
2022/12/23 11:06:45;;;;;;;15.38;8.00;;;;;;;10.07;100.00;100245.63;5092560;28;20521;-57
2022/12/23 11:09:24;;;;;;;16.88;7.10;;;;;;;10.06;100.00;100230.41;5092707;28;20406;-54
2022/12/23 11:12:03;;;;;;;26.00;8.38;;;;;;;10.02;100.00;100235.59;5093259;28;20044;-57
2022/12/23 11:14:40;;;;;;;14.15;7.40;;;;;;;10.01;100.00;100220.38;5079803;28;20046;-57
2022/12/23 11:17:34;;;;;;;10.65;6.47;;;;;;;10.00;100.00;100211.38;5094182;28;20064;-58
2022/12/23 11:20:18;;;;;;;13.50;6.63;;;;;;;9.98;100.00;100207.28;5092373;28;20048;-57
2022/12/23 11:22:49;;;;;;;13.85;6.40;;;;;;;9.99;100.00;100211.66;5092504;28;20490;-57
2022/12/23 11:25:30;;;;;;;13.85;6.63;;;;;;;10.01;100.00;100212.19;5090503;28;20115;-56
2022/12/23 11:28:18;;;;;;;14.50;7.18;;;;;;;9.96;100.00;100209.50;5093557;28;20052;-56
2022/12/23 11:31:07;;;;;;;13.68;7.72;;;;;;;9.93;100.00;100212.75;5091532;28;20475;-57
2022/12/23 11:33:38;;;;;;;16.13;7.43;;;;;;;9.93;100.00;100216.31;5092183;28;20040;-54
2022/12/23 11:36:08;;;;;;;14.25;7.32;;;;;;;9.89;100.00;100193.47;5093690;28;20040;-57
2022/12/23 11:38:46;;;;;;;13.35;7.00;;;;;;;9.87;100.00;100184.78;5093266;28;20047;-58
2022/12/23 11:41:19;;;;;;;15.98;7.53;;;;;;;9.87;100.00;100183.97;5093031;28;20770;-59
2022/12/23 11:44:10;;;;;;;14.35;6.82;;;;;;;9.85;100.00;100181.50;5086869;28;20074;-60
2022/12/23 11:46:37;;;;;;;15.05;7.22;;;;;;;9.86;100.00;100183.16;5076994;28;20052;-60
2022/12/23 11:49:32;;;;;;;12.00;6.70;;;;;;;9.86;100.00;100176.88;5088383;28;20074;-56
2022/12/23 11:52:20;;;;;;;12.82;6.55;;;;;;;9.87;100.00;100181.25;5089554;28;20067;-58
2022/12/23 11:54:56;;;;;;;15.68;6.38;;;;;;;9.90;100.00;100161.63;5090767;28;20134;-55
2022/12/23 11:57:43;;;;;;;13.35;6.05;;;;;;;9.92;100.00;100154.00;5091871;28;20044;-58
2022/12/23 12:00:22;;;;;;;14.43;5.85;;;;;;;9.93;100.00;100150.16;5093368;28;20055;-59
2022/12/23 12:02:52;;;;;;;12.68;6.20;;;;;;;9.94;100.00;100140.94;5091402;28;20040;-57
2022/12/23 12:05:25;;;;;;;12.90;6.07;;;;;;;9.96;100.00;100136.03;5087164;28;20090;-57
2022/12/23 12:07:52;;;;;;;12.38;6.15;;;;;;;9.98;100.00;100125.66;5092620;28;20042;-55